Estación Meteorológica Peña el Pijo (Robertgarden) [ 01/30/23 13:49:51 CET ]

Fecha Hora Presion(HPa) Temp (°C) Humedad % Rocio (°C) Viento ( m/s) Direccion Lluvia 1Hora(mm) Lluvia 24H(mm) LLuvia Total(mm)
2010-Jan-30 01:01:23 998.400 3.8 75 -0.2         69.41
2010-Jan-30 02:03:17 998.000 3.8 76 -0.1         69.41
2010-Jan-30 03:01:13 998.000 4.1 72 -0.5         69.41
2010-Jan-30 04:01:11 998.300 4.1 70 -0.9         69.41
2010-Jan-30 05:01:13 998.100 3.8 71 -1.0         69.41
2010-Jan-30 06:01:14 998.000 3.2 73 -1.2         69.41
2010-Jan-30 07:01:16 998.100 2.7 73 -1.7         69.41
2010-Jan-30 08:01:16 998.400 2.1 76 -1.7         69.41
2010-Jan-30 09:01:15 998.500 1.9 77 -1.7 1.5 S     69.41
2010-Jan-30 10:01:12 999.400 3.1 76 -0.7         69.41
2010-Jan-30 11:01:11 1000.200 4.1 72 -0.5 1.7 SW     69.41
2010-Jan-30 12:01:13 1000.900 4.4 70 -0.6         69.41
2010-Jan-30 13:01:14 1000.400 4.7 72 0.1         69.41
2010-Jan-30 14:01:13 999.900 5.9 65 -0.2 2.5 SSE     69.41
2010-Jan-30 15:01:14 999.400 6.4 61 -0.6         69.41
2010-Jan-30 16:01:14 999.500 7.8 57 -0.2         69.41
2010-Jan-30 17:01:13 999.900 5.2 61 -1.7 1.8 SSW     69.41
2010-Jan-30 18:01:15 999.900 3.9 67 -1.7 0.9 ENE     69.41
2010-Jan-30 19:01:14 1000.600 2.8 70 -2.1 2.0 S     69.41
2010-Jan-30 20:01:18 1000.900 2.9 68 -2.4         69.41
2010-Jan-30 21:01:14 1001.400 2.5 70 -2.4         69.41
2010-Jan-30 22:01:14 1001.200 2.4 73 -2.0         69.41
2010-Jan-30 23:01:14 1000.900 3.1 73 -1.3         69.41

Temperatura Máxima:    Temperatura Mínima:
Presión Máxima:1001.400 Hpa    Presión Mínima:998.000 Hpa


Volver